sensor_id;sensor_type;location;lat;lon;timestamp;P1;durP1;ratioP1;P2;durP2;ratioP2
67965;SDS011;54749;47.850;9.002;2022-07-29T00:02:24;6.72;;;4.13;;
67965;SDS011;54749;47.850;9.002;2022-07-29T00:04:52;8.00;;;4.50;;
67965;SDS011;54749;47.850;9.002;2022-07-29T00:07:19;7.88;;;4.35;;
67965;SDS011;54749;47.850;9.002;2022-07-29T00:09:46;11.05;;;5.50;;
67965;SDS011;54749;47.850;9.002;2022-07-29T00:12:18;9.40;;;5.40;;
67965;SDS011;54749;47.850;9.002;2022-07-29T00:14:51;8.60;;;4.40;;
67965;SDS011;54749;47.850;9.002;2022-07-29T00:17:22;10.80;;;6.07;;
67965;SDS011;54749;47.850;9.002;2022-07-29T00:19:50;8.35;;;5.22;;
67965;SDS011;54749;47.850;9.002;2022-07-29T00:22:17;8.38;;;4.97;;
67965;SDS011;54749;47.850;9.002;2022-07-29T00:24:44;8.00;;;4.82;;
67965;SDS011;54749;47.850;9.002;2022-07-29T00:27:10;7.82;;;4.40;;
67965;SDS011;54749;47.850;9.002;2022-07-29T00:29:37;8.03;;;4.77;;
67965;SDS011;54749;47.850;9.002;2022-07-29T00:32:04;9.52;;;5.40;;
67965;SDS011;54749;47.850;9.002;2022-07-29T00:34:31;7.05;;;4.32;;
67965;SDS011;54749;47.850;9.002;2022-07-29T00:37:16;8.95;;;4.90;;
67965;SDS011;54749;47.850;9.002;2022-07-29T00:39:43;7.60;;;4.50;;
67965;SDS011;54749;47.850;9.002;2022-07-29T00:42:10;10.77;;;5.50;;
67965;SDS011;54749;47.850;9.002;2022-07-29T00:44:41;9.27;;;5.20;;
67965;SDS011;54749;47.850;9.002;2022-07-29T00:47:08;8.18;;;4.38;;
67965;SDS011;54749;47.850;9.002;2022-07-29T00:49:37;8.63;;;3.90;;
67965;SDS011;54749;47.850;9.002;2022-07-29T00:52:07;8.80;;;4.85;;
67965;SDS011;54749;47.850;9.002;2022-07-29T00:54:35;7.63;;;3.73;;
67965;SDS011;54749;47.850;9.002;2022-07-29T00:57:10;6.10;;;3.60;;
67965;SDS011;54749;47.850;9.002;2022-07-29T00:59:37;5.70;;;3.45;;
67965;SDS011;54749;47.850;9.002;2022-07-29T01:02:04;6.35;;;3.70;;
67965;SDS011;54749;47.850;9.002;2022-07-29T01:04:32;6.18;;;3.30;;
67965;SDS011;54749;47.850;9.002;2022-07-29T01:07:00;6.30;;;2.83;;
67965;SDS011;54749;47.850;9.002;2022-07-29T01:09:28;5.03;;;2.80;;
67965;SDS011;54749;47.850;9.002;2022-07-29T01:12:23;6.88;;;3.13;;
67965;SDS011;54749;47.850;9.002;2022-07-29T01:14:52;5.85;;;3.20;;
67965;SDS011;54749;47.850;9.002;2022-07-29T01:17:21;5.07;;;2.70;;
67965;SDS011;54749;47.850;9.002;2022-07-29T01:20:03;5.07;;;2.57;;
67965;SDS011;54749;47.850;9.002;2022-07-29T01:23:01;5.18;;;2.40;;
67965;SDS011;54749;47.850;9.002;2022-07-29T01:31:06;4.10;;;2.17;;
67965;SDS011;54749;47.850;9.002;2022-07-29T01:33:43;4.70;;;2.40;;
67965;SDS011;54749;47.850;9.002;2022-07-29T01:39:08;6.35;;;3.13;;
67965;SDS011;54749;47.850;9.002;2022-07-29T01:41:38;4.88;;;2.90;;
67965;SDS011;54749;47.850;9.002;2022-07-29T01:44:11;8.70;;;3.67;;
67965;SDS011;54749;47.850;9.002;2022-07-29T01:46:44;7.87;;;3.37;;
67965;SDS011;54749;47.850;9.002;2022-07-29T01:49:21;9.90;;;4.70;;
67965;SDS011;54749;47.850;9.002;2022-07-29T01:51:57;8.60;;;3.70;;
67965;SDS011;54749;47.850;9.002;2022-07-29T01:54:32;7.00;;;4.05;;
67965;SDS011;54749;47.850;9.002;2022-07-29T01:57:03;10.18;;;5.00;;
67965;SDS011;54749;47.850;9.002;2022-07-29T01:59:34;9.70;;;5.33;;
67965;SDS011;54749;47.850;9.002;2022-07-29T02:02:02;11.73;;;5.22;;
67965;SDS011;54749;47.850;9.002;2022-07-29T02:04:31;10.40;;;4.82;;
67965;SDS011;54749;47.850;9.002;2022-07-29T02:07:06;11.05;;;5.53;;
67965;SDS011;54749;47.850;9.002;2022-07-29T02:09:36;10.52;;;6.10;;
67965;SDS011;54749;47.850;9.002;2022-07-29T02:12:05;13.67;;;6.43;;
67965;SDS011;54749;47.850;9.002;2022-07-29T02:14:36;12.60;;;7.20;;
67965;SDS011;54749;47.850;9.002;2022-07-29T02:17:06;17.02;;;7.40;;
67965;SDS011;54749;47.850;9.002;2022-07-29T02:19:33;15.65;;;8.05;;
67965;SDS011;54749;47.850;9.002;2022-07-29T02:22:03;15.40;;;8.05;;
67965;SDS011;54749;47.850;9.002;2022-07-29T02:24:33;16.93;;;8.40;;
67965;SDS011;54749;47.850;9.002;2022-07-29T02:27:03;16.30;;;8.65;;
67965;SDS011;54749;47.850;9.002;2022-07-29T02:29:30;19.23;;;8.85;;
67965;SDS011;54749;47.850;9.002;2022-07-29T02:31:58;13.00;;;7.30;;
67965;SDS011;54749;47.850;9.002;2022-07-29T02:34:27;13.40;;;5.97;;
67965;SDS011;54749;47.850;9.002;2022-07-29T02:36:55;13.23;;;6.83;;
67965;SDS011;54749;47.850;9.002;2022-07-29T02:39:22;11.13;;;6.18;;
67965;SDS011;54749;47.850;9.002;2022-07-29T02:41:51;12.48;;;6.68;;
67965;SDS011;54749;47.850;9.002;2022-07-29T02:44:27;12.60;;;6.50;;
67965;SDS011;54749;47.850;9.002;2022-07-29T02:47:02;10.52;;;5.85;;
67965;SDS011;54749;47.850;9.002;2022-07-29T02:49:51;12.33;;;6.57;;
67965;SDS011;54749;47.850;9.002;2022-07-29T02:54:56;20.23;;;9.88;;
67965;SDS011;54749;47.850;9.002;2022-07-29T02:57:32;16.15;;;8.52;;
67965;SDS011;54749;47.850;9.002;2022-07-29T03:00:20;17.98;;;8.65;;
67965;SDS011;54749;47.850;9.002;2022-07-29T03:02:50;17.83;;;8.67;;
67965;SDS011;54749;47.850;9.002;2022-07-29T03:05:20;20.70;;;10.15;;
67965;SDS011;54749;47.850;9.002;2022-07-29T03:07:51;17.02;;;8.65;;
67965;SDS011;54749;47.850;9.002;2022-07-29T03:10:21;15.52;;;7.68;;
67965;SDS011;54749;47.850;9.002;2022-07-29T03:12:48;14.60;;;7.25;;
67965;SDS011;54749;47.850;9.002;2022-07-29T03:15:15;17.97;;;9.37;;
67965;SDS011;54749;47.850;9.002;2022-07-29T03:17:42;17.20;;;9.30;;
67965;SDS011;54749;47.850;9.002;2022-07-29T03:20:10;20.77;;;10.40;;
67965;SDS011;54749;47.850;9.002;2022-07-29T03:22:38;18.70;;;10.18;;
67965;SDS011;54749;47.850;9.002;2022-07-29T03:25:10;16.35;;;8.98;;
67965;SDS011;54749;47.850;9.002;2022-07-29T03:27:37;18.33;;;9.63;;
67965;SDS011;54749;47.850;9.002;2022-07-29T03:30:05;18.63;;;10.15;;
67965;SDS011;54749;47.850;9.002;2022-07-29T03:32:34;15.13;;;7.70;;
67965;SDS011;54749;47.850;9.002;2022-07-29T03:35:01;19.58;;;10.23;;
67965;SDS011;54749;47.850;9.002;2022-07-29T03:37:28;16.55;;;8.32;;
67965;SDS011;54749;47.850;9.002;2022-07-29T03:39:57;18.00;;;8.00;;
67965;SDS011;54749;47.850;9.002;2022-07-29T03:42:25;18.13;;;9.38;;
67965;SDS011;54749;47.850;9.002;2022-07-29T03:45:01;19.20;;;9.65;;
67965;SDS011;54749;47.850;9.002;2022-07-29T03:47:31;16.30;;;8.00;;
67965;SDS011;54749;47.850;9.002;2022-07-29T03:50:17;16.17;;;8.63;;
67965;SDS011;54749;47.850;9.002;2022-07-29T03:52:46;17.07;;;8.50;;
67965;SDS011;54749;47.850;9.002;2022-07-29T03:55:14;13.20;;;6.80;;
67965;SDS011;54749;47.850;9.002;2022-07-29T03:57:42;13.05;;;7.32;;
67965;SDS011;54749;47.850;9.002;2022-07-29T04:00:10;15.90;;;8.48;;
67965;SDS011;54749;47.850;9.002;2022-07-29T04:02:38;20.08;;;10.25;;
67965;SDS011;54749;47.850;9.002;2022-07-29T04:05:11;15.43;;;8.40;;
67965;SDS011;54749;47.850;9.002;2022-07-29T04:07:38;14.35;;;7.28;;
67965;SDS011;54749;47.850;9.002;2022-07-29T04:10:06;14.45;;;8.15;;
67965;SDS011;54749;47.850;9.002;2022-07-29T04:12:33;16.38;;;8.18;;
67965;SDS011;54749;47.850;9.002;2022-07-29T04:15:01;14.82;;;7.40;;
67965;SDS011;54749;47.850;9.002;2022-07-29T04:17:31;14.00;;;7.87;;
67965;SDS011;54749;47.850;9.002;2022-07-29T04:19:58;15.30;;;8.60;;
67965;SDS011;54749;47.850;9.002;2022-07-29T04:22:25;16.05;;;8.25;;
67965;SDS011;54749;47.850;9.002;2022-07-29T04:24:52;12.30;;;7.05;;
67965;SDS011;54749;47.850;9.002;2022-07-29T04:27:19;12.27;;;6.65;;
67965;SDS011;54749;47.850;9.002;2022-07-29T04:29:46;14.03;;;7.70;;
67965;SDS011;54749;47.850;9.002;2022-07-29T04:32:22;9.73;;;5.60;;
67965;SDS011;54749;47.850;9.002;2022-07-29T04:34:50;12.80;;;6.63;;
67965;SDS011;54749;47.850;9.002;2022-07-29T04:37:17;13.88;;;7.80;;
67965;SDS011;54749;47.850;9.002;2022-07-29T04:39:44;9.50;;;5.30;;
67965;SDS011;54749;47.850;9.002;2022-07-29T04:42:10;10.07;;;5.63;;
67965;SDS011;54749;47.850;9.002;2022-07-29T04:44:38;11.85;;;6.68;;
67965;SDS011;54749;47.850;9.002;2022-07-29T04:47:08;13.13;;;6.65;;
67965;SDS011;54749;47.850;9.002;2022-07-29T04:49:37;10.07;;;5.85;;
67965;SDS011;54749;47.850;9.002;2022-07-29T04:52:05;9.90;;;5.85;;
67965;SDS011;54749;47.850;9.002;2022-07-29T04:54:32;10.63;;;6.10;;
67965;SDS011;54749;47.850;9.002;2022-07-29T04:56:59;13.57;;;7.78;;
67965;SDS011;54749;47.850;9.002;2022-07-29T04:59:26;12.82;;;7.35;;
67965;SDS011;54749;47.850;9.002;2022-07-29T05:01:53;13.73;;;6.72;;
67965;SDS011;54749;47.850;9.002;2022-07-29T05:04:20;15.95;;;8.45;;
67965;SDS011;54749;47.850;9.002;2022-07-29T05:06:47;14.60;;;8.07;;
67965;SDS011;54749;47.850;9.002;2022-07-29T05:09:14;12.02;;;6.72;;
67965;SDS011;54749;47.850;9.002;2022-07-29T05:11:41;13.75;;;8.18;;
67965;SDS011;54749;47.850;9.002;2022-07-29T05:14:07;12.15;;;7.30;;
67965;SDS011;54749;47.850;9.002;2022-07-29T05:16:35;11.02;;;6.95;;
67965;SDS011;54749;47.850;9.002;2022-07-29T05:19:02;17.17;;;8.73;;
67965;SDS011;54749;47.850;9.002;2022-07-29T05:21:28;12.23;;;7.18;;
67965;SDS011;54749;47.850;9.002;2022-07-29T05:23:55;13.40;;;7.85;;
67965;SDS011;54749;47.850;9.002;2022-07-29T05:26:22;15.23;;;6.95;;
67965;SDS011;54749;47.850;9.002;2022-07-29T05:28:49;14.68;;;7.85;;
67965;SDS011;54749;47.850;9.002;2022-07-29T05:31:16;12.63;;;6.40;;
67965;SDS011;54749;47.850;9.002;2022-07-29T05:33:42;10.45;;;6.80;;
67965;SDS011;54749;47.850;9.002;2022-07-29T05:36:10;10.35;;;6.05;;
67965;SDS011;54749;47.850;9.002;2022-07-29T05:38:37;10.10;;;5.93;;
67965;SDS011;54749;47.850;9.002;2022-07-29T05:41:04;9.05;;;5.10;;
67965;SDS011;54749;47.850;9.002;2022-07-29T05:43:31;10.20;;;6.30;;
67965;SDS011;54749;47.850;9.002;2022-07-29T05:45:58;11.13;;;7.13;;
67965;SDS011;54749;47.850;9.002;2022-07-29T05:48:25;10.98;;;5.93;;
67965;SDS011;54749;47.850;9.002;2022-07-29T05:50:52;11.05;;;6.50;;
67965;SDS011;54749;47.850;9.002;2022-07-29T05:53:19;11.07;;;5.65;;
67965;SDS011;54749;47.850;9.002;2022-07-29T05:55:47;12.83;;;6.20;;
67965;SDS011;54749;47.850;9.002;2022-07-29T05:58:14;10.48;;;6.65;;
67965;SDS011;54749;47.850;9.002;2022-07-29T06:00:41;8.93;;;5.60;;
67965;SDS011;54749;47.850;9.002;2022-07-29T06:03:08;8.65;;;5.03;;
67965;SDS011;54749;47.850;9.002;2022-07-29T06:05:35;8.63;;;5.13;;
67965;SDS011;54749;47.850;9.002;2022-07-29T06:08:02;10.77;;;6.17;;
67965;SDS011;54749;47.850;9.002;2022-07-29T06:10:29;10.80;;;5.75;;
67965;SDS011;54749;47.850;9.002;2022-07-29T06:12:56;10.50;;;6.38;;
67965;SDS011;54749;47.850;9.002;2022-07-29T06:15:23;12.50;;;6.50;;
67965;SDS011;54749;47.850;9.002;2022-07-29T06:17:49;10.52;;;6.05;;
67965;SDS011;54749;47.850;9.002;2022-07-29T06:20:27;12.97;;;6.30;;
67965;SDS011;54749;47.850;9.002;2022-07-29T06:22:57;9.95;;;6.05;;
67965;SDS011;54749;47.850;9.002;2022-07-29T06:25:23;10.25;;;5.55;;
67965;SDS011;54749;47.850;9.002;2022-07-29T06:27:50;8.93;;;5.38;;
67965;SDS011;54749;47.850;9.002;2022-07-29T06:30:17;8.90;;;4.95;;
67965;SDS011;54749;47.850;9.002;2022-07-29T06:32:44;7.30;;;4.17;;
67965;SDS011;54749;47.850;9.002;2022-07-29T06:35:11;8.60;;;4.43;;
67965;SDS011;54749;47.850;9.002;2022-07-29T06:37:57;8.45;;;5.18;;
67965;SDS011;54749;47.850;9.002;2022-07-29T06:40:25;7.45;;;3.85;;
67965;SDS011;54749;47.850;9.002;2022-07-29T06:43:10;7.97;;;4.38;;
67965;SDS011;54749;47.850;9.002;2022-07-29T06:45:37;7.73;;;4.23;;
67965;SDS011;54749;47.850;9.002;2022-07-29T06:48:08;7.07;;;3.45;;
67965;SDS011;54749;47.850;9.002;2022-07-29T06:50:35;7.30;;;3.20;;
67965;SDS011;54749;47.850;9.002;2022-07-29T06:53:03;5.65;;;3.28;;
67965;SDS011;54749;47.850;9.002;2022-07-29T06:55:30;5.22;;;2.53;;
67965;SDS011;54749;47.850;9.002;2022-07-29T06:57:57;4.37;;;2.13;;
67965;SDS011;54749;47.850;9.002;2022-07-29T07:00:24;5.25;;;1.92;;
67965;SDS011;54749;47.850;9.002;2022-07-29T07:02:50;5.20;;;1.85;;
67965;SDS011;54749;47.850;9.002;2022-07-29T07:05:17;4.93;;;2.00;;
67965;SDS011;54749;47.850;9.002;2022-07-29T07:07:44;6.28;;;1.90;;
67965;SDS011;54749;47.850;9.002;2022-07-29T07:10:11;4.90;;;1.87;;
67965;SDS011;54749;47.850;9.002;2022-07-29T07:12:38;5.18;;;2.40;;
67965;SDS011;54749;47.850;9.002;2022-07-29T07:15:05;5.03;;;2.10;;
67965;SDS011;54749;47.850;9.002;2022-07-29T07:17:32;4.72;;;1.90;;
67965;SDS011;54749;47.850;9.002;2022-07-29T07:19:59;4.75;;;2.40;;
67965;SDS011;54749;47.850;9.002;2022-07-29T07:22:26;5.87;;;2.10;;
67965;SDS011;54749;47.850;9.002;2022-07-29T07:24:52;6.57;;;2.40;;
67965;SDS011;54749;47.850;9.002;2022-07-29T07:27:19;5.15;;;2.40;;
67965;SDS011;54749;47.850;9.002;2022-07-29T07:29:46;5.80;;;2.20;;
67965;SDS011;54749;47.850;9.002;2022-07-29T07:32:13;4.40;;;2.28;;
67965;SDS011;54749;47.850;9.002;2022-07-29T07:34:42;5.13;;;2.43;;
67965;SDS011;54749;47.850;9.002;2022-07-29T07:37:09;6.28;;;2.85;;
67965;SDS011;54749;47.850;9.002;2022-07-29T07:39:36;5.55;;;2.22;;
67965;SDS011;54749;47.850;9.002;2022-07-29T07:42:03;4.68;;;2.55;;
67965;SDS011;54749;47.850;9.002;2022-07-29T07:44:30;6.20;;;2.60;;
67965;SDS011;54749;47.850;9.002;2022-07-29T07:46:57;5.90;;;2.63;;
67965;SDS011;54749;47.850;9.002;2022-07-29T07:49:29;7.20;;;3.05;;
67965;SDS011;54749;47.850;9.002;2022-07-29T07:51:56;6.95;;;2.70;;
67965;SDS011;54749;47.850;9.002;2022-07-29T07:54:23;8.40;;;3.40;;
67965;SDS011;54749;47.850;9.002;2022-07-29T07:56:50;5.85;;;3.20;;
67965;SDS011;54749;47.850;9.002;2022-07-29T07:59:19;5.40;;;2.90;;
67965;SDS011;54749;47.850;9.002;2022-07-29T08:01:45;5.28;;;2.50;;
67965;SDS011;54749;47.850;9.002;2022-07-29T08:04:22;9.05;;;3.40;;
67965;SDS011;54749;47.850;9.002;2022-07-29T08:06:54;6.20;;;2.65;;
67965;SDS011;54749;47.850;9.002;2022-07-29T08:09:22;6.38;;;3.13;;
67965;SDS011;54749;47.850;9.002;2022-07-29T08:11:57;8.37;;;3.70;;
67965;SDS011;54749;47.850;9.002;2022-07-29T08:14:24;6.82;;;3.20;;
67965;SDS011;54749;47.850;9.002;2022-07-29T08:16:51;6.55;;;3.30;;
67965;SDS011;54749;47.850;9.002;2022-07-29T08:19:18;8.57;;;3.58;;
67965;SDS011;54749;47.850;9.002;2022-07-29T08:21:45;8.57;;;3.40;;
67965;SDS011;54749;47.850;9.002;2022-07-29T08:24:12;9.53;;;3.90;;
67965;SDS011;54749;47.850;9.002;2022-07-29T08:26:58;9.93;;;3.70;;
67965;SDS011;54749;47.850;9.002;2022-07-29T08:29:24;7.53;;;3.78;;
67965;SDS011;54749;47.850;9.002;2022-07-29T08:31:51;8.50;;;3.58;;
67965;SDS011;54749;47.850;9.002;2022-07-29T08:34:18;6.85;;;3.70;;
67965;SDS011;54749;47.850;9.002;2022-07-29T08:36:52;6.43;;;3.30;;
67965;SDS011;54749;47.850;9.002;2022-07-29T08:39:19;8.13;;;3.70;;
67965;SDS011;54749;47.850;9.002;2022-07-29T08:41:46;7.25;;;3.83;;
67965;SDS011;54749;47.850;9.002;2022-07-29T08:44:23;6.22;;;3.22;;
67965;SDS011;54749;47.850;9.002;2022-07-29T08:46:56;6.28;;;3.58;;
67965;SDS011;54749;47.850;9.002;2022-07-29T08:49:23;6.43;;;3.40;;
67965;SDS011;54749;47.850;9.002;2022-07-29T08:51:50;7.68;;;3.22;;
67965;SDS011;54749;47.850;9.002;2022-07-29T08:54:20;7.80;;;3.80;;
67965;SDS011;54749;47.850;9.002;2022-07-29T08:56:49;6.30;;;3.00;;
67965;SDS011;54749;47.850;9.002;2022-07-29T08:59:20;6.63;;;2.90;;
67965;SDS011;54749;47.850;9.002;2022-07-29T09:01:50;5.80;;;3.20;;
67965;SDS011;54749;47.850;9.002;2022-07-29T09:04:20;5.75;;;2.83;;
67965;SDS011;54749;47.850;9.002;2022-07-29T09:06:49;5.80;;;3.40;;
67965;SDS011;54749;47.850;9.002;2022-07-29T09:09:18;7.50;;;3.88;;
67965;SDS011;54749;47.850;9.002;2022-07-29T09:11:45;6.22;;;3.25;;
67965;SDS011;54749;47.850;9.002;2022-07-29T09:14:12;6.67;;;3.33;;
67965;SDS011;54749;47.850;9.002;2022-07-29T09:16:43;7.13;;;3.65;;
67965;SDS011;54749;47.850;9.002;2022-07-29T09:19:23;8.40;;;3.70;;
67965;SDS011;54749;47.850;9.002;2022-07-29T09:21:55;9.90;;;3.78;;
67965;SDS011;54749;47.850;9.002;2022-07-29T09:27:07;6.10;;;3.80;;
67965;SDS011;54749;47.850;9.002;2022-07-29T09:29:36;7.15;;;3.10;;
67965;SDS011;54749;47.850;9.002;2022-07-29T09:32:05;10.52;;;4.10;;
67965;SDS011;54749;47.850;9.002;2022-07-29T09:34:34;11.63;;;3.78;;
67965;SDS011;54749;47.850;9.002;2022-07-29T09:37:01;8.38;;;3.80;;
67965;SDS011;54749;47.850;9.002;2022-07-29T09:39:38;8.70;;;3.50;;
67965;SDS011;54749;47.850;9.002;2022-07-29T09:42:16;7.55;;;3.40;;
67965;SDS011;54749;47.850;9.002;2022-07-29T09:44:54;9.02;;;3.80;;
67965;SDS011;54749;47.850;9.002;2022-07-29T09:47:21;7.60;;;3.60;;
67965;SDS011;54749;47.850;9.002;2022-07-29T09:49:54;8.88;;;3.67;;
67965;SDS011;54749;47.850;9.002;2022-07-29T09:52:26;9.50;;;3.77;;
67965;SDS011;54749;47.850;9.002;2022-07-29T09:55:07;11.95;;;4.00;;
67965;SDS011;54749;47.850;9.002;2022-07-29T09:57:43;9.20;;;3.08;;
67965;SDS011;54749;47.850;9.002;2022-07-29T10:00:18;7.35;;;3.72;;
67965;SDS011;54749;47.850;9.002;2022-07-29T10:02:46;11.00;;;3.58;;
67965;SDS011;54749;47.850;9.002;2022-07-29T10:05:20;9.23;;;3.47;;
67965;SDS011;54749;47.850;9.002;2022-07-29T10:08:01;9.07;;;3.10;;
67965;SDS011;54749;47.850;9.002;2022-07-29T10:10:33;6.75;;;2.90;;
67965;SDS011;54749;47.850;9.002;2022-07-29T10:13:01;7.22;;;3.70;;
67965;SDS011;54749;47.850;9.002;2022-07-29T10:15:36;7.53;;;3.17;;
67965;SDS011;54749;47.850;9.002;2022-07-29T10:18:10;7.33;;;3.50;;
67965;SDS011;54749;47.850;9.002;2022-07-29T10:20:39;10.45;;;3.28;;
67965;SDS011;54749;47.850;9.002;2022-07-29T10:23:06;9.18;;;3.50;;
67965;SDS011;54749;47.850;9.002;2022-07-29T10:25:33;5.60;;;3.10;;
67965;SDS011;54749;47.850;9.002;2022-07-29T10:28:00;6.60;;;2.75;;
67965;SDS011;54749;47.850;9.002;2022-07-29T10:30:27;5.37;;;3.00;;
67965;SDS011;54749;47.850;9.002;2022-07-29T10:33:16;6.93;;;3.50;;
67965;SDS011;54749;47.850;9.002;2022-07-29T10:39:11;8.30;;;3.80;;
67965;SDS011;54749;47.850;9.002;2022-07-29T10:44:40;6.43;;;3.17;;
67965;SDS011;54749;47.850;9.002;2022-07-29T10:47:19;6.10;;;2.83;;
67965;SDS011;54749;47.850;9.002;2022-07-29T10:50:03;7.50;;;3.03;;
67965;SDS011;54749;47.850;9.002;2022-07-29T10:55:35;7.22;;;2.50;;
67965;SDS011;54749;47.850;9.002;2022-07-29T10:58:21;4.73;;;2.50;;
67965;SDS011;54749;47.850;9.002;2022-07-29T11:00:54;5.15;;;2.50;;
67965;SDS011;54749;47.850;9.002;2022-07-29T11:06:15;7.25;;;2.50;;
67965;SDS011;54749;47.850;9.002;2022-07-29T11:08:43;4.53;;;2.60;;
67965;SDS011;54749;47.850;9.002;2022-07-29T11:13:55;7.25;;;2.80;;
67965;SDS011;54749;47.850;9.002;2022-07-29T11:16:22;4.65;;;2.95;;
67965;SDS011;54749;47.850;9.002;2022-07-29T11:21:43;6.22;;;3.03;;
67965;SDS011;54749;47.850;9.002;2022-07-29T11:24:28;6.23;;;3.00;;
67965;SDS011;54749;47.850;9.002;2022-07-29T11:29:58;6.53;;;2.85;;
67965;SDS011;54749;47.850;9.002;2022-07-29T11:32:35;4.95;;;2.70;;
67965;SDS011;54749;47.850;9.002;2022-07-29T11:35:11;4.88;;;2.47;;
67965;SDS011;54749;47.850;9.002;2022-07-29T11:37:44;8.40;;;2.90;;
67965;SDS011;54749;47.850;9.002;2022-07-29T11:40:23;6.05;;;3.20;;
67965;SDS011;54749;47.850;9.002;2022-07-29T11:42:50;5.80;;;2.83;;
67965;SDS011;54749;47.850;9.002;2022-07-29T11:45:19;5.85;;;3.13;;
67965;SDS011;54749;47.850;9.002;2022-07-29T11:48:14;7.13;;;2.63;;
67965;SDS011;54749;47.850;9.002;2022-07-29T11:50:57;4.90;;;2.53;;
67965;SDS011;54749;47.850;9.002;2022-07-29T11:53:25;5.30;;;2.80;;
67965;SDS011;54749;47.850;9.002;2022-07-29T11:55:54;4.82;;;2.75;;
67965;SDS011;54749;47.850;9.002;2022-07-29T11:58:23;5.32;;;2.70;;
67965;SDS011;54749;47.850;9.002;2022-07-29T12:00:52;4.22;;;2.47;;
67965;SDS011;54749;47.850;9.002;2022-07-29T12:03:25;5.50;;;2.87;;
67965;SDS011;54749;47.850;9.002;2022-07-29T12:06:01;5.80;;;3.55;;
67965;SDS011;54749;47.850;9.002;2022-07-29T12:08:28;6.22;;;2.83;;
67965;SDS011;54749;47.850;9.002;2022-07-29T12:10:56;5.10;;;2.50;;
67965;SDS011;54749;47.850;9.002;2022-07-29T12:13:22;5.65;;;2.70;;
67965;SDS011;54749;47.850;9.002;2022-07-29T12:16:03;6.00;;;2.60;;
67965;SDS011;54749;47.850;9.002;2022-07-29T12:18:30;4.57;;;2.88;;
67965;SDS011;54749;47.850;9.002;2022-07-29T12:20:58;5.22;;;2.80;;
67965;SDS011;54749;47.850;9.002;2022-07-29T12:23:29;6.13;;;2.80;;
67965;SDS011;54749;47.850;9.002;2022-07-29T12:26:03;5.18;;;2.50;;
67965;SDS011;54749;47.850;9.002;2022-07-29T12:28:38;4.80;;;2.50;;
67965;SDS011;54749;47.850;9.002;2022-07-29T12:31:11;6.32;;;2.80;;
67965;SDS011;54749;47.850;9.002;2022-07-29T12:33:40;6.03;;;2.75;;
67965;SDS011;54749;47.850;9.002;2022-07-29T12:36:07;5.00;;;2.60;;
67965;SDS011;54749;47.850;9.002;2022-07-29T12:38:43;6.40;;;2.90;;
67965;SDS011;54749;47.850;9.002;2022-07-29T12:41:10;5.13;;;2.50;;
67965;SDS011;54749;47.850;9.002;2022-07-29T12:43:47;6.72;;;3.10;;
67965;SDS011;54749;47.850;9.002;2022-07-29T12:46:19;7.85;;;3.20;;
67965;SDS011;54749;47.850;9.002;2022-07-29T12:48:49;6.20;;;2.70;;
67965;SDS011;54749;47.850;9.002;2022-07-29T12:51:34;7.25;;;3.30;;
67965;SDS011;54749;47.850;9.002;2022-07-29T12:56:33;4.70;;;2.63;;
67965;SDS011;54749;47.850;9.002;2022-07-29T13:01:47;7.35;;;3.13;;
67965;SDS011;54749;47.850;9.002;2022-07-29T13:04:29;5.10;;;2.85;;
67965;SDS011;54749;47.850;9.002;2022-07-29T13:07:01;5.40;;;2.60;;
67965;SDS011;54749;47.850;9.002;2022-07-29T13:12:09;6.43;;;3.25;;
67965;SDS011;54749;47.850;9.002;2022-07-29T13:14:38;5.38;;;2.80;;
67965;SDS011;54749;47.850;9.002;2022-07-29T13:17:17;5.95;;;2.70;;
67965;SDS011;54749;47.850;9.002;2022-07-29T13:19:52;5.27;;;2.60;;
67965;SDS011;54749;47.850;9.002;2022-07-29T13:22:34;6.20;;;2.40;;
67965;SDS011;54749;47.850;9.002;2022-07-29T13:25:01;7.20;;;3.00;;
67965;SDS011;54749;47.850;9.002;2022-07-29T13:27:30;6.38;;;2.70;;
67965;SDS011;54749;47.850;9.002;2022-07-29T13:29:59;5.00;;;2.33;;
67965;SDS011;54749;47.850;9.002;2022-07-29T13:32:28;6.27;;;2.70;;
67965;SDS011;54749;47.850;9.002;2022-07-29T13:34:56;4.50;;;2.45;;
67965;SDS011;54749;47.850;9.002;2022-07-29T13:37:24;4.60;;;2.30;;
67965;SDS011;54749;47.850;9.002;2022-07-29T13:39:52;6.22;;;3.13;;
67965;SDS011;54749;47.850;9.002;2022-07-29T13:42:20;3.90;;;1.98;;
67965;SDS011;54749;47.850;9.002;2022-07-29T13:44:47;6.37;;;3.00;;
67965;SDS011;54749;47.850;9.002;2022-07-29T13:47:15;5.80;;;2.58;;
67965;SDS011;54749;47.850;9.002;2022-07-29T13:49:42;5.22;;;2.70;;
67965;SDS011;54749;47.850;9.002;2022-07-29T13:52:09;5.78;;;2.72;;
67965;SDS011;54749;47.850;9.002;2022-07-29T13:54:36;5.38;;;2.30;;
67965;SDS011;54749;47.850;9.002;2022-07-29T13:57:08;5.73;;;2.73;;
67965;SDS011;54749;47.850;9.002;2022-07-29T13:59:37;6.55;;;2.42;;
67965;SDS011;54749;47.850;9.002;2022-07-29T14:02:05;6.32;;;2.53;;
67965;SDS011;54749;47.850;9.002;2022-07-29T14:04:33;5.68;;;2.50;;
67965;SDS011;54749;47.850;9.002;2022-07-29T14:07:00;5.85;;;2.63;;
67965;SDS011;54749;47.850;9.002;2022-07-29T14:09:29;6.83;;;3.13;;
67965;SDS011;54749;47.850;9.002;2022-07-29T14:12:07;6.25;;;3.08;;
67965;SDS011;54749;47.850;9.002;2022-07-29T14:14:34;5.75;;;2.60;;
67965;SDS011;54749;47.850;9.002;2022-07-29T14:17:03;5.93;;;3.40;;
67965;SDS011;54749;47.850;9.002;2022-07-29T14:19:33;5.85;;;2.97;;
67965;SDS011;54749;47.850;9.002;2022-07-29T14:22:05;5.63;;;2.70;;
67965;SDS011;54749;47.850;9.002;2022-07-29T14:24:34;5.47;;;3.15;;
67965;SDS011;54749;47.850;9.002;2022-07-29T14:27:03;5.22;;;2.83;;
67965;SDS011;54749;47.850;9.002;2022-07-29T14:29:31;9.95;;;3.63;;
67965;SDS011;54749;47.850;9.002;2022-07-29T14:32:08;5.78;;;2.88;;
67965;SDS011;54749;47.850;9.002;2022-07-29T14:34:37;7.47;;;3.50;;
67965;SDS011;54749;47.850;9.002;2022-07-29T14:37:04;6.00;;;2.70;;
67965;SDS011;54749;47.850;9.002;2022-07-29T14:39:32;5.75;;;2.80;;
67965;SDS011;54749;47.850;9.002;2022-07-29T14:42:08;9.05;;;3.50;;
67965;SDS011;54749;47.850;9.002;2022-07-29T14:44:37;5.07;;;2.72;;
67965;SDS011;54749;47.850;9.002;2022-07-29T14:47:03;5.27;;;2.70;;
67965;SDS011;54749;47.850;9.002;2022-07-29T14:49:33;7.05;;;2.95;;
67965;SDS011;54749;47.850;9.002;2022-07-29T14:52:00;5.97;;;2.90;;
67965;SDS011;54749;47.850;9.002;2022-07-29T14:54:27;5.68;;;3.00;;
67965;SDS011;54749;47.850;9.002;2022-07-29T14:56:54;7.50;;;2.90;;
67965;SDS011;54749;47.850;9.002;2022-07-29T14:59:24;7.57;;;3.10;;
67965;SDS011;54749;47.850;9.002;2022-07-29T15:01:51;6.22;;;2.90;;
67965;SDS011;54749;47.850;9.002;2022-07-29T15:04:18;5.93;;;2.65;;
67965;SDS011;54749;47.850;9.002;2022-07-29T15:06:45;7.22;;;2.60;;
67965;SDS011;54749;47.850;9.002;2022-07-29T15:09:12;5.22;;;2.70;;
67965;SDS011;54749;47.850;9.002;2022-07-29T15:11:38;7.37;;;3.00;;
67965;SDS011;54749;47.850;9.002;2022-07-29T15:14:05;6.65;;;2.70;;
67965;SDS011;54749;47.850;9.002;2022-07-29T15:16:34;9.60;;;3.42;;
67965;SDS011;54749;47.850;9.002;2022-07-29T15:19:02;15.95;;;3.65;;
67965;SDS011;54749;47.850;9.002;2022-07-29T15:21:29;13.95;;;3.88;;
67965;SDS011;54749;47.850;9.002;2022-07-29T15:23:56;10.43;;;4.30;;
67965;SDS011;54749;47.850;9.002;2022-07-29T15:26:23;11.88;;;5.13;;
67965;SDS011;54749;47.850;9.002;2022-07-29T15:28:50;12.13;;;4.70;;
67965;SDS011;54749;47.850;9.002;2022-07-29T15:31:17;7.88;;;4.32;;
67965;SDS011;54749;47.850;9.002;2022-07-29T15:33:45;9.65;;;4.55;;
67965;SDS011;54749;47.850;9.002;2022-07-29T15:36:12;8.03;;;4.10;;
67965;SDS011;54749;47.850;9.002;2022-07-29T15:38:59;8.38;;;3.70;;
67965;SDS011;54749;47.850;9.002;2022-07-29T15:41:26;7.40;;;3.50;;
67965;SDS011;54749;47.850;9.002;2022-07-29T15:43:52;8.65;;;3.80;;